Saitama, Japan
Current Conditions -  °F | °C
As of 10:58 AM on Monday 26 Jan 2015 (Local Time) from RJTY Reporting Station
Scattered Clouds Scattered Clouds  
Wind Chill: 50°   Ceiling: Unl
Heat Index: 50°   Visibility: 10mi
Dew Point: 37°   Wind: 2mph
Humidity: 62%   Direction: 140°SE
Pressure: 30.26"   Gusts: NA
Location:  35.87°N, 139.65°E
Report Text: RJTY 260158Z AUTO 14002KT 10SM SCT022 10/03 A3026 RMK AO2 SLP255
Loading
Personal Weather Stations






























Interactive Weather Map New forecast layout! Learn more

10-Day Weather Forecast

Advertisements
Track Severe Weather on mobile